CheckWX is a tool to help pilots better visualize weather data.  It is not intended as a substitute for an official pre-flight weather briefing.

15:27:02 UTC

KINS METAR
Creech AFB Airport
Indian Springs, Nevada, USA
Current

29 mins ago

KINS 231458Z AUTO 00000KT 10SM FEW050 FEW160 SCT200 12/04 A2977 RMK AO2 SLP057 T01160039 52015 $
Observed
May-23 @ 14:58 UTC
Visibility
10 SM
Flight Rules
VFR
Cloud Levels
  • Few at 5,000' AGL
  • Few at 16,000' AGL
  • Scattered at 20,000' AGL
Temperature
12°C / 54°F
Dewpoint
C / 39°F
Humidity
58%
Altimeter
29.77" Hg
Pressure
1008.12 hPa
Previous

29 mins ago

KINS 231458Z AUTO 00000KT 10SM FEW050 FEW160 SCT200 12/04 A2977 RMK AO2 SLP057 T01160039 52015 $
Observed
May-23 @ 14:58 UTC
Visibility
10 SM
Flight Rules
VFR
Cloud Levels
  • Few at 5,000' AGL
  • Few at 16,000' AGL
  • Scattered at 20,000' AGL
Temperature
12°C / 54°F
Dewpoint
C / 39°F
Humidity
58%
Altimeter
29.77" Hg
Pressure
1008.12 hPa
Previous

39 mins ago

KINS 231448Z AUTO 19004KT 10SM SCT050 SCT160 11/04 A2977 RMK AO2 SLP059 $
Observed
May-23 @ 14:48 UTC
Wind
  • 190° at 4 KTS
Visibility
10 SM
Flight Rules
VFR
Cloud Levels
  • Scattered at 5,000' AGL
  • Scattered at 16,000' AGL
Temperature
11°C / 52°F
Dewpoint
C / 39°F
Humidity
62%
Altimeter
29.77" Hg
Pressure
1008.12 hPa